Chennai, India

7:56 PM IST on February 08, 2016 (GMT +0530)
Chennai International | | Change Station
CLOSE
Current Station
Airport
Location: Chennai,
Elevation: 52 ft
Nearby Weather Stations

Elev 52 ft 12.99 °N, 80.18 °E | Updated 26 minutes ago

Partly Cloudy
Partly Cloudy
79 °F
Feels Like 79 °F
N
9
Wind Variable Wind from East

Today
High -- | Low -- °F
--% Chance of Precip.
Yesterday
High -- | Low -- °F
Precip. -- in
Pressure 29.89 in
Visibility 3.7 miles
Clouds Few 2000 ft
Dew Point 70 °F
Humidity 74%
Rainfall 0.00 in
Snow Depth Not available.
6:34 AM 6:12 PM
Waning Crescent, 0% visible
METAR VOMM 081400Z 08008KT 6000 FEW020 26/21 Q1012 NOSIG
Pressure 29.89 in
Visibility 3.7 miles
Clouds Few 2000 ft
Dew Point 70 °F
Humidity 74%
Rainfall 0.00 in
Snow Depth Not available.
6:34 AM 6:12 PM
Waning Crescent, 0% visible
METAR VOMM 081400Z 08008KT 6000 FEW020 26/21 Q1012 NOSIG

10-Day Weather Forecast

No radar image for this location.
×

Almanac

Astronomy

Feb. 08, 2016 Rise Set
Actual Time
Civil Twilight
Nautical Twilight
Astronomical Twilight
Moon
Length of Visible Light
Length of Day
Tomorrow will be .
, % of the Moon is Illuminated

Today's Extremes

Country Highs Country Lows

Community

WunderPhotos

Upload Photos

1,891,437 photos uploaded!

WunderBlog® & News

Nearby

Air Quality

  Air Quality AQ Index Pollutant
Not available.

Snow Depth

Station Depth Elevation

Earthquake Activity

City Distance Mag. Time & Date
Minimum magnitude displayed is 2.5.

Coastal Water Temperatures

Place Temperature

Stations

Nearby Weather Stations

Station Location Temp. Windchill Dew Point Humidity Wind Precip. Elev Updated Type